createdAt,value
2019-03-20T00:02:18.263Z,3.83
2019-03-20T00:04:50.681Z,3.57
2019-03-20T00:07:22.699Z,5.03
2019-03-20T00:09:54.694Z,3.73
2019-03-20T00:12:26.786Z,3.33
2019-03-20T00:14:58.971Z,3.23
2019-03-20T00:17:31.133Z,3.93
2019-03-20T00:20:06.030Z,4.37
2019-03-20T00:22:39.721Z,3.63
2019-03-20T00:25:13.065Z,3.40
2019-03-20T00:27:45.083Z,3.67
2019-03-20T00:33:56.929Z,4.23
2019-03-20T00:36:28.990Z,4.37
2019-03-20T00:39:01.071Z,4.00
2019-03-20T00:41:33.403Z,3.80
2019-03-20T00:44:05.408Z,5.20
2019-03-20T00:46:37.490Z,4.13
2019-03-20T00:49:09.532Z,3.80
2019-03-20T00:51:41.510Z,3.43
2019-03-20T00:54:13.494Z,4.33
2019-03-20T00:56:45.614Z,3.13
2019-03-20T01:38:56.692Z,3.23
2019-03-20T01:41:37.640Z,3.30
2019-03-20T01:44:02.579Z,2.43
2019-03-20T01:46:35.189Z,2.83
2019-03-20T01:49:07.429Z,2.87
2019-03-20T01:51:39.667Z,3.40
2019-03-20T01:54:11.768Z,2.93
2019-03-20T01:56:44.188Z,3.47
2019-03-20T01:59:17.306Z,3.73
2019-03-20T02:01:52.479Z,3.43
2019-03-20T02:04:24.412Z,3.20
2019-03-20T02:06:56.679Z,3.37
2019-03-20T02:09:28.758Z,3.80
2019-03-20T02:12:00.869Z,3.97
2019-03-20T02:14:32.878Z,3.33
2019-03-20T02:17:04.892Z,3.67
2019-03-20T02:19:36.936Z,4.33
2019-03-20T02:22:09.236Z,4.00
2019-03-20T02:24:41.294Z,4.63
2019-03-20T02:27:13.287Z,3.73
2019-03-20T02:29:45.321Z,3.50
2019-03-20T02:32:17.467Z,3.50
2019-03-20T02:34:49.763Z,3.43
2019-03-20T02:37:23.988Z,4.13
2019-03-20T02:39:56.016Z,3.97
2019-03-20T02:42:28.106Z,3.50
2019-03-20T02:45:00.422Z,4.33
2019-03-20T02:47:32.431Z,4.43
2019-03-20T02:50:06.404Z,3.57
2019-03-20T02:52:38.369Z,4.23
2019-03-20T02:55:12.103Z,3.70
2019-03-20T02:57:44.193Z,3.93
2019-03-20T03:00:24.023Z,3.97
2019-03-20T03:02:56.162Z,3.70
2019-03-20T03:05:28.238Z,3.57
2019-03-20T03:08:00.262Z,3.77
2019-03-20T03:10:32.258Z,3.80
2019-03-20T03:13:04.341Z,4.23
2019-03-20T03:47:24.225Z,3.13
2019-03-20T03:49:56.346Z,3.23
2019-03-20T03:52:28.302Z,3.20
2019-03-20T03:58:39.585Z,3.03
2019-03-20T04:01:33.253Z,3.27
2019-03-20T04:04:34.783Z,3.60
2019-03-20T04:11:11.063Z,3.50
2019-03-20T04:16:51.453Z,3.17
2019-03-20T04:19:23.596Z,3.40
2019-03-20T04:21:55.588Z,3.40
2019-03-20T04:24:27.588Z,2.87
2019-03-20T04:26:59.555Z,3.27
2019-03-20T04:29:31.615Z,3.37
2019-03-20T04:32:03.544Z,3.07
2019-03-20T04:34:35.491Z,3.27
2019-03-20T04:37:17.948Z,3.90
2019-03-20T04:40:04.501Z,3.23
2019-03-20T04:43:00.097Z,3.83
2019-03-20T04:55:12.525Z,3.30
2019-03-20T04:57:50.305Z,3.77
2019-03-20T05:00:34.679Z,3.00
2019-03-20T05:03:17.480Z,2.70
2019-03-20T05:06:01.824Z,3.50
2019-03-20T05:08:36.670Z,3.23
2019-03-20T05:11:10.026Z,2.93
2019-03-20T05:13:51.618Z,3.47
2019-03-20T05:16:28.682Z,3.20
2019-03-20T05:19:17.600Z,3.17
2019-03-20T05:21:55.136Z,2.80
2019-03-20T05:24:27.184Z,3.10
2019-03-20T05:27:00.351Z,3.40
2019-03-20T05:29:32.390Z,3.03
2019-03-20T05:32:04.756Z,3.23
2019-03-20T05:34:37.202Z,3.50
2019-03-20T05:37:10.771Z,3.73
2019-03-20T05:39:43.770Z,3.50
2019-03-20T05:42:15.748Z,3.43
2019-03-20T05:44:47.802Z,2.87
2019-03-20T05:47:19.789Z,3.77
2019-03-20T05:49:54.634Z,3.40
2019-03-20T05:52:26.970Z,3.33
2019-03-20T05:54:58.996Z,3.37
2019-03-20T05:57:31.240Z,2.90
2019-03-20T06:00:05.988Z,3.00
2019-03-20T06:02:37.998Z,3.63
2019-03-20T06:05:11.557Z,3.47
2019-03-20T06:07:45.311Z,3.57
2019-03-20T06:10:20.788Z,3.50
2019-03-20T06:12:52.925Z,3.10
2019-03-20T06:15:25.025Z,3.40
2019-03-20T06:17:57.172Z,3.30
2019-03-20T06:20:29.606Z,3.70
2019-03-20T06:23:01.674Z,3.37
2019-03-20T06:25:33.676Z,3.17
2019-03-20T06:28:05.757Z,3.30
2019-03-20T06:30:37.805Z,3.67
2019-03-20T06:33:10.183Z,3.20
2019-03-20T06:35:42.308Z,3.30
2019-03-20T06:38:16.063Z,3.40
2019-03-20T06:40:48.131Z,3.63
2019-03-20T06:43:20.192Z,3.30
2019-03-20T06:45:52.162Z,3.57
2019-03-20T06:48:24.362Z,3.53
2019-03-20T06:50:56.463Z,3.50
2019-03-20T06:53:28.418Z,3.70
2019-03-20T06:56:00.404Z,3.90
2019-03-20T06:58:32.467Z,4.03
2019-03-20T07:01:11.720Z,3.90
2019-03-20T07:03:54.105Z,4.30
2019-03-20T07:06:51.239Z,4.37
2019-03-20T07:09:37.496Z,5.00
2019-03-20T07:12:09.527Z,4.23
2019-03-20T07:14:49.169Z,4.77
2019-03-20T07:17:22.770Z,5.50
2019-03-20T07:19:57.016Z,5.63
2019-03-20T07:22:37.032Z,5.83
2019-03-20T07:25:09.594Z,6.07
2019-03-20T07:27:44.114Z,5.57
2019-03-20T07:30:16.393Z,7.20
2019-03-20T07:32:49.785Z,6.17
2019-03-20T07:35:21.940Z,6.50
2019-03-20T07:37:56.281Z,7.00
2019-03-20T07:40:27.724Z,7.63
2019-03-20T07:43:08.821Z,7.43
2019-03-20T07:45:35.567Z,7.27
2019-03-20T07:48:21.258Z,7.60
2019-03-20T07:50:44.316Z,7.10
2019-03-20T07:53:16.605Z,7.50
2019-03-20T07:55:48.687Z,8.27
2019-03-20T07:58:20.862Z,8.27
2019-03-20T08:00:52.961Z,8.43
2019-03-20T08:03:25.501Z,9.30
2019-03-20T08:05:58.011Z,9.07
2019-03-20T08:08:30.079Z,8.83
2019-03-20T08:11:02.029Z,9.33
2019-03-20T08:13:35.558Z,8.87
2019-03-20T08:16:11.922Z,9.03
2019-03-20T08:18:44.446Z,10.00
2019-03-20T08:21:17.508Z,10.20
2019-03-20T08:23:50.381Z,11.07
2019-03-20T08:26:22.564Z,10.40
2019-03-20T08:28:54.546Z,10.13
2019-03-20T08:31:26.550Z,10.97
2019-03-20T08:33:58.792Z,11.13
2019-03-20T08:36:32.720Z,10.47
2019-03-20T08:39:06.840Z,11.20
2019-03-20T08:41:39.596Z,12.50
2019-03-20T08:44:12.058Z,11.90
2019-03-20T08:46:44.167Z,12.20
2019-03-20T08:49:16.377Z,12.63
2019-03-20T08:51:48.491Z,11.53
2019-03-20T08:54:21.805Z,13.37
2019-03-20T08:59:55.990Z,13.37
2019-03-20T09:02:28.986Z,13.83
2019-03-20T09:05:01.681Z,14.43
2019-03-20T09:07:33.910Z,14.30
2019-03-20T09:10:20.911Z,13.37
2019-03-20T09:12:55.471Z,13.13
2019-03-20T09:15:28.196Z,13.10
2019-03-20T09:18:00.341Z,13.87
2019-03-20T09:20:32.563Z,12.53
2019-03-20T09:23:05.345Z,13.40
2019-03-20T09:25:37.966Z,13.70
2019-03-20T09:28:11.834Z,13.73
2019-03-20T09:30:44.369Z,13.60
2019-03-20T09:36:18.919Z,14.13
2019-03-20T09:39:27.745Z,13.73
2019-03-20T09:42:06.683Z,14.00
2019-03-20T09:44:40.144Z,13.87
2019-03-20T09:47:12.524Z,13.03
2019-03-20T09:49:46.873Z,13.60
2019-03-20T09:52:28.526Z,14.67
2019-03-20T09:55:01.638Z,14.07
2019-03-20T09:57:34.166Z,14.67
2019-03-20T10:00:25.459Z,14.43
2019-03-20T10:05:58.696Z,14.90
2019-03-20T10:08:30.949Z,14.00
2019-03-20T10:11:04.143Z,14.40
2019-03-20T10:13:37.426Z,15.57
2019-03-20T10:16:17.311Z,16.63
2019-03-20T10:18:52.751Z,15.50
2019-03-20T10:21:24.955Z,15.80
2019-03-20T10:23:57.017Z,15.50
2019-03-20T10:26:29.160Z,15.37
2019-03-20T10:29:01.323Z,16.83
2019-03-20T10:31:33.501Z,16.43
2019-03-20T10:34:05.704Z,16.43
2019-03-20T10:36:38.533Z,15.70
2019-03-20T10:39:16.337Z,16.43
2019-03-20T10:41:48.995Z,16.87
2019-03-20T10:44:21.038Z,16.83
2019-03-20T10:46:53.169Z,17.80
2019-03-20T10:49:25.699Z,17.17
2019-03-20T10:51:58.594Z,17.37
2019-03-20T10:54:30.691Z,16.73
2019-03-20T10:57:02.791Z,18.43
2019-03-20T10:59:36.615Z,17.47
2019-03-20T11:02:08.839Z,17.47
2019-03-20T11:04:40.874Z,19.13
2019-03-20T11:07:12.985Z,17.87
2019-03-20T11:09:45.202Z,18.57
2019-03-20T11:12:17.280Z,18.50
2019-03-20T11:14:49.329Z,18.57
2019-03-20T11:17:21.773Z,19.40
2019-03-20T11:19:56.215Z,19.33
2019-03-20T11:22:27.636Z,18.73
2019-03-20T11:24:59.611Z,19.57
2019-03-20T11:27:33.407Z,18.77
2019-03-20T11:30:13.231Z,18.57
2019-03-20T11:32:45.528Z,20.70
2019-03-20T11:35:17.711Z,19.90
2019-03-20T11:37:49.963Z,20.00
2019-03-20T11:40:41.203Z,20.57
2019-03-20T11:43:13.880Z,21.07
2019-03-20T11:45:46.478Z,21.30
2019-03-20T11:48:18.599Z,19.93
2019-03-20T11:50:50.795Z,20.43
2019-03-20T11:53:23.859Z,19.60
2019-03-20T11:55:56.010Z,20.20
2019-03-20T11:58:28.020Z,20.90
2019-03-20T12:01:00.093Z,20.90
2019-03-20T12:03:32.406Z,20.10
2019-03-20T12:06:04.684Z,22.43
2019-03-20T12:08:36.817Z,23.43
2019-03-20T12:11:09.236Z,22.43
2019-03-20T12:13:41.247Z,23.90
2019-03-20T12:16:13.280Z,22.80
2019-03-20T12:18:45.255Z,22.27
2019-03-20T12:21:17.368Z,23.07
2019-03-20T12:23:49.376Z,22.83
2019-03-20T12:26:21.399Z,22.83
2019-03-20T12:28:56.348Z,23.20
2019-03-20T12:31:28.423Z,23.30
2019-03-20T12:34:02.764Z,23.97
2019-03-20T12:36:38.047Z,23.23
2019-03-20T12:39:11.183Z,23.20
2019-03-20T12:41:46.507Z,23.80
2019-03-20T12:44:19.256Z,24.17
2019-03-20T12:47:26.366Z,24.00
2019-03-20T12:50:04.687Z,23.03
2019-03-20T12:52:44.006Z,22.37
2019-03-20T12:55:20.576Z,23.10
2019-03-20T12:57:57.821Z,23.50
2019-03-20T13:00:42.043Z,22.77
2019-03-20T13:03:20.352Z,21.00
2019-03-20T13:06:20.314Z,21.80
2019-03-20T13:09:18.317Z,22.07
2019-03-20T13:11:57.745Z,21.97
2019-03-20T13:15:01.495Z,23.80
2019-03-20T13:17:33.748Z,22.83
2019-03-20T13:20:12.763Z,21.67
2019-03-20T13:23:22.052Z,23.07
2019-03-20T13:26:02.792Z,21.83
2019-03-20T13:31:43.888Z,21.70
2019-03-20T13:40:38.328Z,22.47
2019-03-20T13:43:13.115Z,23.83
2019-03-20T13:49:10.989Z,22.53
2019-03-20T13:52:04.249Z,23.13
2019-03-20T13:54:39.994Z,23.23
2019-03-20T13:57:12.404Z,22.57
2019-03-20T13:59:45.846Z,23.17
2019-03-20T14:02:17.974Z,22.00
2019-03-20T14:04:50.353Z,22.47
2019-03-20T14:07:22.476Z,22.37
2019-03-20T14:09:54.569Z,22.43
2019-03-20T14:12:26.722Z,22.33
2019-03-20T14:15:01.118Z,23.97
2019-03-20T14:17:37.064Z,22.50
2019-03-20T14:23:38.991Z,21.93
2019-03-20T14:26:20.680Z,22.70
2019-03-20T14:29:10.018Z,22.60
2019-03-20T14:31:54.982Z,22.27
2019-03-20T14:34:39.595Z,23.57
2019-03-20T14:37:17.759Z,22.67
2019-03-20T14:40:07.640Z,25.23
2019-03-20T14:55:48.030Z,23.77
2019-03-20T15:04:45.101Z,24.33
2019-03-20T15:13:39.873Z,24.67
2019-03-20T15:16:16.678Z,24.77
2019-03-20T15:18:55.469Z,27.57
2019-03-20T15:21:31.976Z,26.43
2019-03-20T15:46:21.800Z,26.53
2019-03-20T15:54:56.600Z,29.73
2019-03-20T15:57:38.991Z,29.87
2019-03-20T16:00:37.182Z,29.27
2019-03-20T16:03:27.638Z,30.70
2019-03-20T16:06:00.269Z,30.97
2019-03-20T16:08:35.935Z,31.47
2019-03-20T16:11:09.492Z,32.23
2019-03-20T16:13:44.268Z,31.47
2019-03-20T16:16:16.426Z,31.60
2019-03-20T16:18:48.773Z,32.20
2019-03-20T16:21:20.833Z,32.93
2019-03-20T16:23:53.107Z,31.87
2019-03-20T16:26:25.488Z,33.53
2019-03-20T16:28:59.022Z,32.60
2019-03-20T16:31:31.504Z,32.70
2019-03-20T16:34:03.616Z,33.40
2019-03-20T16:36:38.403Z,34.00
2019-03-20T16:39:10.295Z,33.57
2019-03-20T16:41:43.222Z,33.57
2019-03-20T16:44:15.291Z,34.23
2019-03-20T16:46:47.374Z,33.47
2019-03-20T16:49:19.679Z,34.70
2019-03-20T16:51:51.721Z,34.83
2019-03-20T16:54:23.748Z,34.37
2019-03-20T16:56:56.148Z,35.73
2019-03-20T16:59:28.203Z,37.53
2019-03-20T17:02:01.628Z,35.47
2019-03-20T17:04:33.641Z,37.40
2019-03-20T17:07:05.662Z,36.13
2019-03-20T17:09:37.680Z,36.83
2019-03-20T17:12:12.463Z,37.00
2019-03-20T17:14:44.804Z,37.70
2019-03-20T17:17:16.819Z,36.87
2019-03-20T17:19:49.768Z,36.50
2019-03-20T17:22:21.806Z,36.57
2019-03-20T17:24:53.856Z,37.17
2019-03-20T17:27:26.385Z,37.87
2019-03-20T17:29:58.444Z,35.53
2019-03-20T17:32:30.799Z,35.50
2019-03-20T17:35:03.132Z,35.80
2019-03-20T17:37:35.435Z,35.37
2019-03-20T17:40:14.645Z,36.03
2019-03-20T17:42:46.652Z,42.38
2019-03-20T17:48:30.212Z,33.90
2019-03-20T18:03:23.981Z,34.63
2019-03-20T18:09:25.892Z,35.63
2019-03-20T18:12:09.925Z,34.30
2019-03-20T18:14:42.739Z,34.20
2019-03-20T18:17:15.270Z,34.33
2019-03-20T18:19:49.000Z,37.10
2019-03-20T19:09:07.462Z,36.20
2019-03-20T19:11:48.384Z,31.80
2019-03-20T19:14:21.345Z,34.20
2019-03-20T19:16:53.534Z,35.80
2019-03-20T19:19:25.841Z,36.20
2019-03-20T19:22:00.012Z,33.00
2019-03-20T19:24:32.808Z,30.53
2019-03-20T19:27:06.030Z,30.77
2019-03-20T19:29:41.139Z,29.63
2019-03-20T19:32:20.800Z,29.80
2019-03-20T19:34:53.145Z,32.30
2019-03-20T19:37:25.256Z,31.20
2019-03-20T19:39:57.381Z,31.47
2019-03-20T19:42:32.475Z,31.73
2019-03-20T19:45:12.089Z,30.97
2019-03-20T19:47:49.302Z,29.57
2019-03-20T20:06:27.568Z,29.80
2019-03-20T20:09:00.401Z,28.33
2019-03-20T20:11:33.249Z,29.40
2019-03-20T20:17:14.564Z,30.53
2019-03-20T20:19:46.646Z,28.03
2019-03-20T20:22:18.703Z,29.83
2019-03-20T20:24:53.057Z,30.03
2019-03-20T20:27:25.521Z,28.10
2019-03-20T20:29:57.705Z,30.57
2019-03-20T20:32:30.045Z,29.47
2019-03-20T20:35:07.526Z,29.87
2019-03-20T20:37:40.859Z,31.23
2019-03-20T20:40:22.937Z,32.83
2019-03-20T20:43:18.728Z,32.30
2019-03-20T20:45:51.231Z,33.07
2019-03-20T20:48:24.229Z,33.00
2019-03-20T20:51:03.758Z,32.97
2019-03-20T20:53:37.797Z,35.17
2019-03-20T20:56:11.822Z,33.57
2019-03-20T20:58:45.553Z,33.43
2019-03-20T21:01:51.349Z,33.60
2019-03-20T21:04:29.541Z,35.90
2019-03-20T21:10:36.768Z,33.67
2019-03-20T21:13:11.977Z,33.60
2019-03-20T21:15:49.035Z,34.43
2019-03-20T21:18:49.114Z,34.20
2019-03-20T21:21:22.206Z,33.17
2019-03-20T21:24:24.908Z,33.60
2019-03-20T21:27:17.223Z,31.60
2019-03-20T21:30:29.953Z,31.90
2019-03-20T21:33:28.833Z,31.07
2019-03-20T21:36:34.087Z,32.40
2019-03-20T21:39:08.172Z,30.47
2019-03-20T21:42:26.675Z,31.33
2019-03-20T21:45:24.394Z,30.83
2019-03-20T21:58:25.331Z,28.17
2019-03-20T22:04:45.282Z,29.33
2019-03-20T22:07:19.834Z,28.47
2019-03-20T22:09:56.577Z,26.13
2019-03-20T22:12:50.206Z,26.87
2019-03-20T22:15:46.536Z,26.97
2019-03-20T22:18:57.229Z,27.13
2019-03-20T22:21:57.095Z,26.07
2019-03-20T22:24:59.780Z,25.93
2019-03-20T22:28:03.536Z,27.13
2019-03-20T22:34:26.921Z,28.17
2019-03-20T22:36:59.247Z,28.70
2019-03-20T22:40:16.183Z,27.47
2019-03-20T22:43:29.426Z,25.43
2019-03-20T22:46:27.871Z,25.63
2019-03-20T22:49:16.100Z,24.37
2019-03-20T22:52:28.542Z,24.93
2019-03-20T22:55:40.786Z,22.57
2019-03-20T22:58:46.542Z,21.57
2019-03-20T23:01:42.430Z,19.70
2019-03-20T23:07:42.780Z,23.07
2019-03-20T23:10:38.356Z,19.50
2019-03-20T23:13:20.283Z,19.87
2019-03-20T23:16:00.933Z,19.83
2019-03-20T23:18:35.074Z,19.80
2019-03-20T23:21:10.199Z,20.97
2019-03-20T23:23:45.120Z,20.17
2019-03-20T23:26:17.132Z,25.20
2019-03-20T23:28:49.445Z,24.90
2019-03-20T23:31:21.818Z,25.47
2019-03-20T23:33:54.705Z,24.43
2019-03-20T23:36:30.244Z,24.07
2019-03-20T23:39:09.761Z,24.90
2019-03-20T23:41:46.027Z,22.43
2019-03-20T23:44:20.448Z,23.07
2019-03-20T23:46:53.619Z,20.97
2019-03-20T23:49:28.226Z,19.77
2019-03-20T23:52:01.642Z,19.97
2019-03-20T23:54:45.074Z,19.63
2019-03-20T23:57:17.716Z,18.27
2019-03-20T23:59:52.076Z,19.13
